sensor_id;sensor_type;location;lat;lon;timestamp;temperature;humidity
45012;DHT22;63444;48.148;11.542;2023-07-29T00:01:15;19.40;99.90
45012;DHT22;63444;48.148;11.542;2023-07-29T00:03:41;19.40;99.90
45012;DHT22;63444;48.148;11.542;2023-07-29T00:06:06;19.40;99.90
45012;DHT22;63444;48.148;11.542;2023-07-29T00:08:32;19.40;99.90
45012;DHT22;63444;48.148;11.542;2023-07-29T00:10:58;19.40;99.90
45012;DHT22;63444;48.148;11.542;2023-07-29T00:13:23;19.40;99.90
45012;DHT22;63444;48.148;11.542;2023-07-29T00:15:49;19.40;99.90
45012;DHT22;63444;48.148;11.542;2023-07-29T00:18:14;19.40;99.90
45012;DHT22;63444;48.148;11.542;2023-07-29T00:20:40;19.30;99.90
45012;DHT22;63444;48.148;11.542;2023-07-29T00:23:05;19.30;99.90
45012;DHT22;63444;48.148;11.542;2023-07-29T00:25:31;19.30;99.90
45012;DHT22;63444;48.148;11.542;2023-07-29T00:27:59;19.30;99.90
45012;DHT22;63444;48.148;11.542;2023-07-29T00:30:24;19.30;99.90
45012;DHT22;63444;48.148;11.542;2023-07-29T00:32:50;19.30;99.90
45012;DHT22;63444;48.148;11.542;2023-07-29T00:35:15;19.30;99.90
45012;DHT22;63444;48.148;11.542;2023-07-29T00:37:41;19.30;99.90
45012;DHT22;63444;48.148;11.542;2023-07-29T00:40:13;19.30;99.90
45012;DHT22;63444;48.148;11.542;2023-07-29T00:42:39;19.30;99.90
45012;DHT22;63444;48.148;11.542;2023-07-29T00:45:05;19.30;99.90
45012;DHT22;63444;48.148;11.542;2023-07-29T00:47:33;19.30;99.90
45012;DHT22;63444;48.148;11.542;2023-07-29T00:49:58;19.30;99.90
45012;DHT22;63444;48.148;11.542;2023-07-29T00:52:24;19.40;99.90
45012;DHT22;63444;48.148;11.542;2023-07-29T00:54:50;19.30;99.90
45012;DHT22;63444;48.148;11.542;2023-07-29T00:57:16;19.30;99.90
45012;DHT22;63444;48.148;11.542;2023-07-29T00:59:43;19.30;99.90
45012;DHT22;63444;48.148;11.542;2023-07-29T01:02:09;19.40;99.90
45012;DHT22;63444;48.148;11.542;2023-07-29T01:04:34;19.40;99.90
45012;DHT22;63444;48.148;11.542;2023-07-29T01:13:01;19.40;99.90
45012;DHT22;63444;48.148;11.542;2023-07-29T01:15:31;19.40;99.90
45012;DHT22;63444;48.148;11.542;2023-07-29T01:18:08;19.40;99.90
45012;DHT22;63444;48.148;11.542;2023-07-29T01:20:37;19.40;99.90
45012;DHT22;63444;48.148;11.542;2023-07-29T01:23:04;19.40;99.90
45012;DHT22;63444;48.148;11.542;2023-07-29T01:25:29;19.40;99.90
45012;DHT22;63444;48.148;11.542;2023-07-29T01:27:55;19.40;99.90
45012;DHT22;63444;48.148;11.542;2023-07-29T01:30:37;19.30;99.90
45012;DHT22;63444;48.148;11.542;2023-07-29T01:33:07;19.30;99.90
45012;DHT22;63444;48.148;11.542;2023-07-29T01:35:58;19.30;99.90
45012;DHT22;63444;48.148;11.542;2023-07-29T01:38:38;19.20;99.90
45012;DHT22;63444;48.148;11.542;2023-07-29T01:41:07;19.20;99.90
45012;DHT22;63444;48.148;11.542;2023-07-29T01:43:34;19.20;99.90
45012;DHT22;63444;48.148;11.542;2023-07-29T01:46:04;19.20;99.90
45012;DHT22;63444;48.148;11.542;2023-07-29T01:48:30;19.20;99.90
45012;DHT22;63444;48.148;11.542;2023-07-29T01:50:57;19.10;99.90
45012;DHT22;63444;48.148;11.542;2023-07-29T01:53:23;19.10;99.90
45012;DHT22;63444;48.148;11.542;2023-07-29T01:55:49;19.10;99.90
45012;DHT22;63444;48.148;11.542;2023-07-29T01:58:14;19.10;99.90
45012;DHT22;63444;48.148;11.542;2023-07-29T02:00:40;19.10;99.90
45012;DHT22;63444;48.148;11.542;2023-07-29T02:03:05;19.10;99.90
45012;DHT22;63444;48.148;11.542;2023-07-29T02:05:31;19.10;99.90
45012;DHT22;63444;48.148;11.542;2023-07-29T02:07:57;19.10;99.90
45012;DHT22;63444;48.148;11.542;2023-07-29T02:10:22;19.10;99.90
45012;DHT22;63444;48.148;11.542;2023-07-29T02:12:48;19.10;99.90
45012;DHT22;63444;48.148;11.542;2023-07-29T02:15:13;19.10;99.90
45012;DHT22;63444;48.148;11.542;2023-07-29T02:17:41;19.10;99.90
45012;DHT22;63444;48.148;11.542;2023-07-29T02:20:07;19.10;99.90
45012;DHT22;63444;48.148;11.542;2023-07-29T02:22:34;19.10;99.90
45012;DHT22;63444;48.148;11.542;2023-07-29T02:24:59;19.10;99.90
45012;DHT22;63444;48.148;11.542;2023-07-29T02:27:26;19.10;99.90
45012;DHT22;63444;48.148;11.542;2023-07-29T02:29:52;19.10;99.90
45012;DHT22;63444;48.148;11.542;2023-07-29T02:32:18;19.00;99.90
45012;DHT22;63444;48.148;11.542;2023-07-29T02:34:44;19.00;99.90
45012;DHT22;63444;48.148;11.542;2023-07-29T02:37:10;19.00;99.90
45012;DHT22;63444;48.148;11.542;2023-07-29T02:39:36;19.00;99.90
45012;DHT22;63444;48.148;11.542;2023-07-29T02:42:02;19.00;99.90
45012;DHT22;63444;48.148;11.542;2023-07-29T02:44:27;19.00;99.90
45012;DHT22;63444;48.148;11.542;2023-07-29T02:46:53;18.90;99.90
45012;DHT22;63444;48.148;11.542;2023-07-29T02:49:21;18.90;99.90
45012;DHT22;63444;48.148;11.542;2023-07-29T02:51:46;18.90;99.90
45012;DHT22;63444;48.148;11.542;2023-07-29T02:54:12;18.90;99.90
45012;DHT22;63444;48.148;11.542;2023-07-29T02:56:38;18.90;99.90
45012;DHT22;63444;48.148;11.542;2023-07-29T02:59:03;18.80;99.90
45012;DHT22;63444;48.148;11.542;2023-07-29T03:01:30;18.80;99.90
45012;DHT22;63444;48.148;11.542;2023-07-29T03:03:56;18.80;99.90
45012;DHT22;63444;48.148;11.542;2023-07-29T03:06:22;18.80;99.90
45012;DHT22;63444;48.148;11.542;2023-07-29T03:08:47;18.70;99.90
45012;DHT22;63444;48.148;11.542;2023-07-29T03:11:14;18.70;99.90
45012;DHT22;63444;48.148;11.542;2023-07-29T03:13:40;18.70;99.90
45012;DHT22;63444;48.148;11.542;2023-07-29T03:16:11;18.70;99.90
45012;DHT22;63444;48.148;11.542;2023-07-29T03:18:37;18.70;99.90
45012;DHT22;63444;48.148;11.542;2023-07-29T03:21:04;18.70;99.90
45012;DHT22;63444;48.148;11.542;2023-07-29T03:23:31;18.70;99.90
45012;DHT22;63444;48.148;11.542;2023-07-29T03:25:58;18.70;99.90
45012;DHT22;63444;48.148;11.542;2023-07-29T03:28:28;18.70;99.90
45012;DHT22;63444;48.148;11.542;2023-07-29T03:30:54;18.70;99.90
45012;DHT22;63444;48.148;11.542;2023-07-29T03:33:20;18.60;99.90
45012;DHT22;63444;48.148;11.542;2023-07-29T03:35:46;18.60;99.90
45012;DHT22;63444;48.148;11.542;2023-07-29T03:38:12;18.60;99.90
45012;DHT22;63444;48.148;11.542;2023-07-29T03:40:39;18.60;99.90
45012;DHT22;63444;48.148;11.542;2023-07-29T03:43:04;18.70;99.90
45012;DHT22;63444;48.148;11.542;2023-07-29T03:45:30;18.70;99.90
45012;DHT22;63444;48.148;11.542;2023-07-29T03:47:56;18.70;99.90
45012;DHT22;63444;48.148;11.542;2023-07-29T03:50:21;18.70;99.90
45012;DHT22;63444;48.148;11.542;2023-07-29T03:52:47;18.70;99.90
45012;DHT22;63444;48.148;11.542;2023-07-29T03:55:13;18.70;99.90
45012;DHT22;63444;48.148;11.542;2023-07-29T03:57:38;18.70;99.90
45012;DHT22;63444;48.148;11.542;2023-07-29T04:00:05;18.70;99.90
45012;DHT22;63444;48.148;11.542;2023-07-29T04:02:31;18.70;99.90
45012;DHT22;63444;48.148;11.542;2023-07-29T04:04:56;18.70;99.90
45012;DHT22;63444;48.148;11.542;2023-07-29T04:07:22;18.70;99.90
45012;DHT22;63444;48.148;11.542;2023-07-29T04:09:48;18.70;99.90
45012;DHT22;63444;48.148;11.542;2023-07-29T04:12:14;18.70;99.90
45012;DHT22;63444;48.148;11.542;2023-07-29T04:14:40;18.70;99.90
45012;DHT22;63444;48.148;11.542;2023-07-29T04:17:05;18.70;99.90
45012;DHT22;63444;48.148;11.542;2023-07-29T04:19:31;18.70;99.90
45012;DHT22;63444;48.148;11.542;2023-07-29T04:21:57;18.70;99.90
45012;DHT22;63444;48.148;11.542;2023-07-29T04:24:22;18.70;99.90
45012;DHT22;63444;48.148;11.542;2023-07-29T04:26:49;18.70;99.90
45012;DHT22;63444;48.148;11.542;2023-07-29T04:29:16;18.70;99.90
45012;DHT22;63444;48.148;11.542;2023-07-29T04:31:42;18.70;99.90
45012;DHT22;63444;48.148;11.542;2023-07-29T04:34:08;18.80;99.90
45012;DHT22;63444;48.148;11.542;2023-07-29T04:36:34;18.80;99.90
45012;DHT22;63444;48.148;11.542;2023-07-29T04:39:00;18.70;99.90
45012;DHT22;63444;48.148;11.542;2023-07-29T04:41:25;18.80;99.90
45012;DHT22;63444;48.148;11.542;2023-07-29T04:43:51;18.80;99.90
45012;DHT22;63444;48.148;11.542;2023-07-29T04:46:17;18.70;99.90
45012;DHT22;63444;48.148;11.542;2023-07-29T04:48:43;18.70;99.90
45012;DHT22;63444;48.148;11.542;2023-07-29T04:51:08;18.70;99.90
45012;DHT22;63444;48.148;11.542;2023-07-29T04:53:34;18.70;99.90
45012;DHT22;63444;48.148;11.542;2023-07-29T04:56:02;18.70;99.90
45012;DHT22;63444;48.148;11.542;2023-07-29T04:58:28;18.70;99.90
45012;DHT22;63444;48.148;11.542;2023-07-29T05:00:55;18.80;99.90
45012;DHT22;63444;48.148;11.542;2023-07-29T05:03:21;18.80;99.90
45012;DHT22;63444;48.148;11.542;2023-07-29T05:05:46;18.80;99.90
45012;DHT22;63444;48.148;11.542;2023-07-29T05:08:12;18.80;99.90
45012;DHT22;63444;48.148;11.542;2023-07-29T05:10:37;18.90;99.90
45012;DHT22;63444;48.148;11.542;2023-07-29T05:13:03;18.90;99.90
45012;DHT22;63444;48.148;11.542;2023-07-29T05:15:29;19.00;99.90
45012;DHT22;63444;48.148;11.542;2023-07-29T05:17:54;19.10;99.90
45012;DHT22;63444;48.148;11.542;2023-07-29T05:20:20;19.10;99.90
45012;DHT22;63444;48.148;11.542;2023-07-29T05:22:45;19.20;99.90
45012;DHT22;63444;48.148;11.542;2023-07-29T05:25:11;19.20;99.90
45012;DHT22;63444;48.148;11.542;2023-07-29T05:27:37;19.30;99.90
45012;DHT22;63444;48.148;11.542;2023-07-29T05:30:02;19.40;99.90
45012;DHT22;63444;48.148;11.542;2023-07-29T05:32:28;19.50;99.90
45012;DHT22;63444;48.148;11.542;2023-07-29T05:34:55;19.50;99.90
45012;DHT22;63444;48.148;11.542;2023-07-29T05:37:20;19.60;99.90
45012;DHT22;63444;48.148;11.542;2023-07-29T05:39:46;19.60;99.90
45012;DHT22;63444;48.148;11.542;2023-07-29T05:42:11;19.70;99.90
45012;DHT22;63444;48.148;11.542;2023-07-29T05:44:37;19.70;99.90
45012;DHT22;63444;48.148;11.542;2023-07-29T05:47:03;19.80;99.90
45012;DHT22;63444;48.148;11.542;2023-07-29T05:49:28;19.80;99.90
45012;DHT22;63444;48.148;11.542;2023-07-29T05:51:54;19.90;99.90
45012;DHT22;63444;48.148;11.542;2023-07-29T05:54:20;19.90;99.90
45012;DHT22;63444;48.148;11.542;2023-07-29T05:56:45;19.90;99.90
45012;DHT22;63444;48.148;11.542;2023-07-29T05:59:11;19.90;99.90
45012;DHT22;63444;48.148;11.542;2023-07-29T06:01:36;20.00;99.90
45012;DHT22;63444;48.148;11.542;2023-07-29T06:04:02;19.90;99.90
45012;DHT22;63444;48.148;11.542;2023-07-29T06:06:28;20.00;99.90
45012;DHT22;63444;48.148;11.542;2023-07-29T06:08:53;19.90;99.90
45012;DHT22;63444;48.148;11.542;2023-07-29T06:11:19;19.80;99.90
45012;DHT22;63444;48.148;11.542;2023-07-29T06:13:45;19.80;99.90
45012;DHT22;63444;48.148;11.542;2023-07-29T06:16:11;19.80;99.90
45012;DHT22;63444;48.148;11.542;2023-07-29T06:18:36;19.70;99.90
45012;DHT22;63444;48.148;11.542;2023-07-29T06:21:02;19.70;99.90
45012;DHT22;63444;48.148;11.542;2023-07-29T06:23:27;19.70;99.90
45012;DHT22;63444;48.148;11.542;2023-07-29T06:25:53;19.60;99.90
45012;DHT22;63444;48.148;11.542;2023-07-29T06:28:19;19.70;99.90
45012;DHT22;63444;48.148;11.542;2023-07-29T06:30:44;19.70;99.90
45012;DHT22;63444;48.148;11.542;2023-07-29T06:33:10;19.70;99.90
45012;DHT22;63444;48.148;11.542;2023-07-29T06:35:35;19.70;99.90
45012;DHT22;63444;48.148;11.542;2023-07-29T06:38:01;19.80;99.90
45012;DHT22;63444;48.148;11.542;2023-07-29T06:40:26;19.80;99.90
45012;DHT22;63444;48.148;11.542;2023-07-29T06:42:52;19.80;99.90
45012;DHT22;63444;48.148;11.542;2023-07-29T06:45:17;19.90;99.90
45012;DHT22;63444;48.148;11.542;2023-07-29T06:47:45;19.90;99.90
45012;DHT22;63444;48.148;11.542;2023-07-29T06:50:10;20.00;99.90
45012;DHT22;63444;48.148;11.542;2023-07-29T06:52:36;20.00;99.90
45012;DHT22;63444;48.148;11.542;2023-07-29T06:55:03;20.00;99.90
45012;DHT22;63444;48.148;11.542;2023-07-29T06:57:29;20.00;99.90
45012;DHT22;63444;48.148;11.542;2023-07-29T06:59:55;20.00;99.90
45012;DHT22;63444;48.148;11.542;2023-07-29T07:02:20;20.00;99.90
45012;DHT22;63444;48.148;11.542;2023-07-29T07:04:46;19.90;99.90
45012;DHT22;63444;48.148;11.542;2023-07-29T07:07:11;19.90;99.90
45012;DHT22;63444;48.148;11.542;2023-07-29T07:09:37;19.90;99.90
45012;DHT22;63444;48.148;11.542;2023-07-29T07:12:02;19.90;99.90
45012;DHT22;63444;48.148;11.542;2023-07-29T07:14:28;19.80;99.90
45012;DHT22;63444;48.148;11.542;2023-07-29T07:16:54;19.80;99.90
45012;DHT22;63444;48.148;11.542;2023-07-29T07:19:19;19.80;99.90
45012;DHT22;63444;48.148;11.542;2023-07-29T07:21:45;19.80;99.90
45012;DHT22;63444;48.148;11.542;2023-07-29T07:24:10;19.80;99.90
45012;DHT22;63444;48.148;11.542;2023-07-29T07:26:36;19.80;99.90
45012;DHT22;63444;48.148;11.542;2023-07-29T07:29:02;19.80;99.90
45012;DHT22;63444;48.148;11.542;2023-07-29T07:31:27;19.80;99.90
45012;DHT22;63444;48.148;11.542;2023-07-29T07:33:53;19.90;99.90
45012;DHT22;63444;48.148;11.542;2023-07-29T07:36:19;19.80;99.90
45012;DHT22;63444;48.148;11.542;2023-07-29T07:38:44;19.80;99.90
45012;DHT22;63444;48.148;11.542;2023-07-29T07:41:10;19.80;99.90
45012;DHT22;63444;48.148;11.542;2023-07-29T07:43:36;19.80;99.90
45012;DHT22;63444;48.148;11.542;2023-07-29T07:46:02;19.80;99.90
45012;DHT22;63444;48.148;11.542;2023-07-29T07:48:28;19.90;99.90
45012;DHT22;63444;48.148;11.542;2023-07-29T07:50:54;19.90;99.90
45012;DHT22;63444;48.148;11.542;2023-07-29T07:53:19;19.90;99.90
45012;DHT22;63444;48.148;11.542;2023-07-29T07:55:48;20.00;99.90
45012;DHT22;63444;48.148;11.542;2023-07-29T07:58:13;20.00;99.90
45012;DHT22;63444;48.148;11.542;2023-07-29T08:00:39;20.00;99.90
45012;DHT22;63444;48.148;11.542;2023-07-29T08:03:05;20.10;99.90
45012;DHT22;63444;48.148;11.542;2023-07-29T08:05:30;20.10;99.90
45012;DHT22;63444;48.148;11.542;2023-07-29T08:07:57;20.20;99.90
45012;DHT22;63444;48.148;11.542;2023-07-29T08:10:24;20.20;99.90
45012;DHT22;63444;48.148;11.542;2023-07-29T08:12:49;20.20;99.90
45012;DHT22;63444;48.148;11.542;2023-07-29T08:15:15;20.20;99.90
45012;DHT22;63444;48.148;11.542;2023-07-29T08:17:40;20.30;99.90
45012;DHT22;63444;48.148;11.542;2023-07-29T08:20:06;20.30;99.90
45012;DHT22;63444;48.148;11.542;2023-07-29T08:22:32;20.30;99.90
45012;DHT22;63444;48.148;11.542;2023-07-29T08:24:58;20.40;99.90
45012;DHT22;63444;48.148;11.542;2023-07-29T08:27:26;20.40;99.90
45012;DHT22;63444;48.148;11.542;2023-07-29T08:29:53;20.50;99.90
45012;DHT22;63444;48.148;11.542;2023-07-29T08:32:19;20.50;99.90
45012;DHT22;63444;48.148;11.542;2023-07-29T08:34:44;20.60;99.90
45012;DHT22;63444;48.148;11.542;2023-07-29T08:37:10;20.70;99.90
45012;DHT22;63444;48.148;11.542;2023-07-29T08:39:35;20.80;99.90
45012;DHT22;63444;48.148;11.542;2023-07-29T08:42:07;20.90;99.90
45012;DHT22;63444;48.148;11.542;2023-07-29T08:44:44;21.00;99.90
45012;DHT22;63444;48.148;11.542;2023-07-29T08:47:11;21.00;99.90
45012;DHT22;63444;48.148;11.542;2023-07-29T08:49:41;21.00;99.90
45012;DHT22;63444;48.148;11.542;2023-07-29T08:52:07;21.10;99.90
45012;DHT22;63444;48.148;11.542;2023-07-29T08:54:33;21.10;99.90
45012;DHT22;63444;48.148;11.542;2023-07-29T08:56:59;21.10;99.90
45012;DHT22;63444;48.148;11.542;2023-07-29T08:59:26;21.10;99.90
45012;DHT22;63444;48.148;11.542;2023-07-29T09:01:54;21.20;99.90
45012;DHT22;63444;48.148;11.542;2023-07-29T09:04:23;21.20;99.90
45012;DHT22;63444;48.148;11.542;2023-07-29T09:06:52;21.30;99.90
45012;DHT22;63444;48.148;11.542;2023-07-29T09:09:19;21.40;99.90
45012;DHT22;63444;48.148;11.542;2023-07-29T09:11:44;21.50;99.90
45012;DHT22;63444;48.148;11.542;2023-07-29T09:14:10;21.60;99.90
45012;DHT22;63444;48.148;11.542;2023-07-29T09:16:36;21.70;99.90
45012;DHT22;63444;48.148;11.542;2023-07-29T09:19:02;21.80;99.90
45012;DHT22;63444;48.148;11.542;2023-07-29T09:21:29;22.00;99.90
45012;DHT22;63444;48.148;11.542;2023-07-29T09:23:55;22.10;99.90
45012;DHT22;63444;48.148;11.542;2023-07-29T09:26:25;22.30;99.90
45012;DHT22;63444;48.148;11.542;2023-07-29T09:28:56;22.50;99.90
45012;DHT22;63444;48.148;11.542;2023-07-29T09:31:23;22.60;99.90
45012;DHT22;63444;48.148;11.542;2023-07-29T09:33:50;22.70;99.90
45012;DHT22;63444;48.148;11.542;2023-07-29T09:36:21;22.90;99.90
45012;DHT22;63444;48.148;11.542;2023-07-29T09:38:46;23.00;99.90
45012;DHT22;63444;48.148;11.542;2023-07-29T09:41:13;23.20;99.90
45012;DHT22;63444;48.148;11.542;2023-07-29T09:43:40;23.40;99.90
45012;DHT22;63444;48.148;11.542;2023-07-29T09:46:06;23.50;99.90
45012;DHT22;63444;48.148;11.542;2023-07-29T09:48:36;23.60;99.90
45012;DHT22;63444;48.148;11.542;2023-07-29T09:51:15;23.70;99.90
45012;DHT22;63444;48.148;11.542;2023-07-29T09:53:46;23.90;99.90
45012;DHT22;63444;48.148;11.542;2023-07-29T09:56:13;24.00;99.90
45012;DHT22;63444;48.148;11.542;2023-07-29T09:58:39;24.20;99.90
45012;DHT22;63444;48.148;11.542;2023-07-29T10:01:06;24.40;99.90
45012;DHT22;63444;48.148;11.542;2023-07-29T10:03:32;24.60;99.90
45012;DHT22;63444;48.148;11.542;2023-07-29T10:06:06;24.80;99.90
45012;DHT22;63444;48.148;11.542;2023-07-29T10:08:32;25.00;99.90
45012;DHT22;63444;48.148;11.542;2023-07-29T10:11:01;25.10;99.90
45012;DHT22;63444;48.148;11.542;2023-07-29T10:13:27;25.20;99.90
45012;DHT22;63444;48.148;11.542;2023-07-29T10:15:56;25.30;99.90
45012;DHT22;63444;48.148;11.542;2023-07-29T10:18:23;25.40;99.90
45012;DHT22;63444;48.148;11.542;2023-07-29T10:20:51;25.50;99.90
45012;DHT22;63444;48.148;11.542;2023-07-29T10:23:18;25.60;99.90
45012;DHT22;63444;48.148;11.542;2023-07-29T10:25:52;25.60;99.90
45012;DHT22;63444;48.148;11.542;2023-07-29T10:28:20;25.70;99.90
45012;DHT22;63444;48.148;11.542;2023-07-29T10:30:48;25.70;99.90
45012;DHT22;63444;48.148;11.542;2023-07-29T10:33:15;25.80;99.90
45012;DHT22;63444;48.148;11.542;2023-07-29T10:35:41;25.90;99.90
45012;DHT22;63444;48.148;11.542;2023-07-29T10:38:07;26.10;99.90
45012;DHT22;63444;48.148;11.542;2023-07-29T10:40:53;26.10;99.90
45012;DHT22;63444;48.148;11.542;2023-07-29T10:43:26;26.20;99.90
45012;DHT22;63444;48.148;11.542;2023-07-29T10:45:53;26.20;99.90
45012;DHT22;63444;48.148;11.542;2023-07-29T10:54:11;26.40;99.90
45012;DHT22;63444;48.148;11.542;2023-07-29T10:56:40;26.40;99.90
45012;DHT22;63444;48.148;11.542;2023-07-29T11:01:40;26.50;99.90
45012;DHT22;63444;48.148;11.542;2023-07-29T11:12:33;26.60;99.90
45012;DHT22;63444;48.148;11.542;2023-07-29T11:17:37;26.70;99.90
45012;DHT22;63444;48.148;11.542;2023-07-29T11:20:04;26.60;99.90
45012;DHT22;63444;48.148;11.542;2023-07-29T11:22:30;26.40;99.80
45012;DHT22;63444;48.148;11.542;2023-07-29T11:24:56;26.10;99.40
45012;DHT22;63444;48.148;11.542;2023-07-29T11:27:22;25.90;98.80
45012;DHT22;63444;48.148;11.542;2023-07-29T11:29:48;25.70;99.10
45012;DHT22;63444;48.148;11.542;2023-07-29T11:32:14;25.50;98.90
45012;DHT22;63444;48.148;11.542;2023-07-29T11:34:41;25.30;99.30
45012;DHT22;63444;48.148;11.542;2023-07-29T11:37:10;25.00;99.90
45012;DHT22;63444;48.148;11.542;2023-07-29T11:39:42;24.90;99.90
45012;DHT22;63444;48.148;11.542;2023-07-29T11:42:11;24.80;99.90
45012;DHT22;63444;48.148;11.542;2023-07-29T11:44:37;24.80;99.90
45012;DHT22;63444;48.148;11.542;2023-07-29T11:47:07;24.80;99.90
45012;DHT22;63444;48.148;11.542;2023-07-29T11:49:34;24.80;99.90
45012;DHT22;63444;48.148;11.542;2023-07-29T11:51:59;24.80;99.90
45012;DHT22;63444;48.148;11.542;2023-07-29T11:54:25;24.80;99.90
45012;DHT22;63444;48.148;11.542;2023-07-29T11:56:51;24.90;99.90
45012;DHT22;63444;48.148;11.542;2023-07-29T11:59:16;24.80;99.90
45012;DHT22;63444;48.148;11.542;2023-07-29T12:01:42;24.90;99.90
45012;DHT22;63444;48.148;11.542;2023-07-29T12:04:08;25.00;99.90
45012;DHT22;63444;48.148;11.542;2023-07-29T12:06:34;25.00;99.90
45012;DHT22;63444;48.148;11.542;2023-07-29T12:09:00;25.10;99.90
45012;DHT22;63444;48.148;11.542;2023-07-29T12:11:26;25.20;99.90
45012;DHT22;63444;48.148;11.542;2023-07-29T12:13:53;25.30;99.90
45012;DHT22;63444;48.148;11.542;2023-07-29T12:16:19;25.30;99.90
45012;DHT22;63444;48.148;11.542;2023-07-29T12:18:44;25.40;99.90
45012;DHT22;63444;48.148;11.542;2023-07-29T12:21:10;25.50;99.90
45012;DHT22;63444;48.148;11.542;2023-07-29T12:23:36;25.50;99.90
45012;DHT22;63444;48.148;11.542;2023-07-29T12:26:01;25.50;99.90
45012;DHT22;63444;48.148;11.542;2023-07-29T12:28:28;25.60;99.90
45012;DHT22;63444;48.148;11.542;2023-07-29T12:30:57;25.60;99.90
45012;DHT22;63444;48.148;11.542;2023-07-29T12:33:36;25.60;99.90
45012;DHT22;63444;48.148;11.542;2023-07-29T12:36:04;25.60;99.90
45012;DHT22;63444;48.148;11.542;2023-07-29T12:38:30;25.70;99.90
45012;DHT22;63444;48.148;11.542;2023-07-29T12:40:56;25.70;99.90
45012;DHT22;63444;48.148;11.542;2023-07-29T12:43:22;25.70;99.90
45012;DHT22;63444;48.148;11.542;2023-07-29T12:45:50;25.60;99.90
45012;DHT22;63444;48.148;11.542;2023-07-29T12:48:16;25.60;99.90
45012;DHT22;63444;48.148;11.542;2023-07-29T12:50:42;25.50;99.90
45012;DHT22;63444;48.148;11.542;2023-07-29T12:53:08;25.30;99.90
45012;DHT22;63444;48.148;11.542;2023-07-29T12:55:38;25.10;99.90
45012;DHT22;63444;48.148;11.542;2023-07-29T12:58:04;24.70;99.90
45012;DHT22;63444;48.148;11.542;2023-07-29T13:00:30;24.30;99.90
45012;DHT22;63444;48.148;11.542;2023-07-29T13:02:55;24.00;99.90
45012;DHT22;63444;48.148;11.542;2023-07-29T13:05:21;23.80;99.90
45012;DHT22;63444;48.148;11.542;2023-07-29T13:07:47;23.50;99.90
45012;DHT22;63444;48.148;11.542;2023-07-29T13:10:13;23.40;99.90
45012;DHT22;63444;48.148;11.542;2023-07-29T13:12:39;23.40;99.90
45012;DHT22;63444;48.148;11.542;2023-07-29T13:15:06;23.40;99.90
45012;DHT22;63444;48.148;11.542;2023-07-29T13:17:32;23.30;99.90
45012;DHT22;63444;48.148;11.542;2023-07-29T13:19:57;23.20;99.90
45012;DHT22;63444;48.148;11.542;2023-07-29T13:22:23;23.10;99.90
45012;DHT22;63444;48.148;11.542;2023-07-29T13:24:48;23.10;99.90
45012;DHT22;63444;48.148;11.542;2023-07-29T13:27:14;23.10;99.90
45012;DHT22;63444;48.148;11.542;2023-07-29T13:29:40;23.10;99.90
45012;DHT22;63444;48.148;11.542;2023-07-29T13:32:06;23.00;99.90
45012;DHT22;63444;48.148;11.542;2023-07-29T13:34:32;23.00;99.90
45012;DHT22;63444;48.148;11.542;2023-07-29T13:36:57;23.00;99.90
45012;DHT22;63444;48.148;11.542;2023-07-29T13:39:23;23.00;99.90
45012;DHT22;63444;48.148;11.542;2023-07-29T13:41:48;23.10;99.90
45012;DHT22;63444;48.148;11.542;2023-07-29T13:44:14;23.00;99.90
45012;DHT22;63444;48.148;11.542;2023-07-29T13:46:40;23.00;99.90
45012;DHT22;63444;48.148;11.542;2023-07-29T13:49:05;22.90;99.90
45012;DHT22;63444;48.148;11.542;2023-07-29T13:51:31;22.90;99.90
45012;DHT22;63444;48.148;11.542;2023-07-29T13:53:57;22.90;99.90
45012;DHT22;63444;48.148;11.542;2023-07-29T13:56:22;22.90;99.90
45012;DHT22;63444;48.148;11.542;2023-07-29T13:58:48;22.90;99.90
45012;DHT22;63444;48.148;11.542;2023-07-29T14:01:14;22.90;99.90
45012;DHT22;63444;48.148;11.542;2023-07-29T14:03:39;22.90;99.90
45012;DHT22;63444;48.148;11.542;2023-07-29T14:06:05;22.90;99.90
45012;DHT22;63444;48.148;11.542;2023-07-29T14:08:31;22.90;99.90
45012;DHT22;63444;48.148;11.542;2023-07-29T14:10:56;22.80;99.90
45012;DHT22;63444;48.148;11.542;2023-07-29T14:13:22;22.90;99.90
45012;DHT22;63444;48.148;11.542;2023-07-29T14:15:47;22.80;99.90
45012;DHT22;63444;48.148;11.542;2023-07-29T14:18:13;22.70;99.90
45012;DHT22;63444;48.148;11.542;2023-07-29T14:20:38;22.60;99.90
45012;DHT22;63444;48.148;11.542;2023-07-29T14:23:04;22.60;99.90
45012;DHT22;63444;48.148;11.542;2023-07-29T14:25:30;22.60;99.90
45012;DHT22;63444;48.148;11.542;2023-07-29T14:27:55;22.70;99.90
45012;DHT22;63444;48.148;11.542;2023-07-29T14:30:21;22.60;99.90
45012;DHT22;63444;48.148;11.542;2023-07-29T14:32:47;22.70;99.90
45012;DHT22;63444;48.148;11.542;2023-07-29T14:35:13;22.60;99.90
45012;DHT22;63444;48.148;11.542;2023-07-29T14:37:38;22.60;99.90
45012;DHT22;63444;48.148;11.542;2023-07-29T14:40:05;22.60;99.90
45012;DHT22;63444;48.148;11.542;2023-07-29T14:42:30;22.60;99.90
45012;DHT22;63444;48.148;11.542;2023-07-29T14:44:56;22.50;99.90
45012;DHT22;63444;48.148;11.542;2023-07-29T14:47:22;22.50;99.90
45012;DHT22;63444;48.148;11.542;2023-07-29T14:49:47;22.40;99.90
45012;DHT22;63444;48.148;11.542;2023-07-29T14:52:13;22.40;99.90
45012;DHT22;63444;48.148;11.542;2023-07-29T14:54:38;22.30;99.90
45012;DHT22;63444;48.148;11.542;2023-07-29T14:57:06;22.30;99.90
45012;DHT22;63444;48.148;11.542;2023-07-29T14:59:31;22.10;99.90
45012;DHT22;63444;48.148;11.542;2023-07-29T15:01:57;22.10;99.90
45012;DHT22;63444;48.148;11.542;2023-07-29T15:04:23;22.00;99.90
45012;DHT22;63444;48.148;11.542;2023-07-29T15:06:48;21.90;99.90
45012;DHT22;63444;48.148;11.542;2023-07-29T15:09:14;21.80;99.90
45012;DHT22;63444;48.148;11.542;2023-07-29T15:11:39;21.70;99.90
45012;DHT22;63444;48.148;11.542;2023-07-29T15:14:06;21.70;99.90
45012;DHT22;63444;48.148;11.542;2023-07-29T15:16:32;21.70;99.90
45012;DHT22;63444;48.148;11.542;2023-07-29T15:18:59;21.70;99.90
45012;DHT22;63444;48.148;11.542;2023-07-29T15:21:25;21.70;99.90
45012;DHT22;63444;48.148;11.542;2023-07-29T15:23:50;21.70;99.90
45012;DHT22;63444;48.148;11.542;2023-07-29T15:26:16;21.70;99.90
45012;DHT22;63444;48.148;11.542;2023-07-29T15:28:41;21.70;99.90
45012;DHT22;63444;48.148;11.542;2023-07-29T15:31:07;21.70;99.90
45012;DHT22;63444;48.148;11.542;2023-07-29T15:33:33;21.70;99.90
45012;DHT22;63444;48.148;11.542;2023-07-29T15:36:00;21.70;99.90